Huvudsida
METAR-TAF:

METAR-TAF

Flygplatser :

Gibraltar International Airport

Gibraltar, Gibraltar

latitud: 36-09N, longitud: 005-21W, höjd: 5 m

Aktuellt väderrapport

Denna rapport gjordes för 1 timme och 5 minuter sedan, klockan 22:50 UTC
Vind 8 kt från väst/nordväst
Temperatur 13°C
Fuktighet 72%
Tryck 1019 hPa
Sikt 10 km eller mer

METAR: LXGB 182250Z AUTO 29008KT 9999 // NCD 13/08 Q1019

Tid: 00:55 (23:55 UTC)

Väderprognos

Denna rapport gjordes för 7 timmar och 21 minuter sedan, klockan 16:34 UTC
Prognos gäller från 18 kl. 18 UTC till 18 kl. 23 UTC
Vind 12 kt från väst/nordväst
Sikt 10 km eller mer
Inga moln under 1 500 m eller inga cumulonimbus

TAF: LXGB 181634Z 1818/1823 29012KT CAVOK

Aktuella väderrapporter och prognoser från 4000 flygplatser (METAR- och TAF-rapporter).

De tillgängliga stationerna syns som gula och röda prickar på kartan.

För musen över prickarna för att se namnen på stationerna.

Klicka sedan för att få väderrapporter och prognoser.

För att ändra kartan: Klicka på de gröna knapparna med ett svart kors på för att zooma in; den gröna knappen med ett streck på för att zooma ut; eller på de gröna pilarna för angränsande kartor.


METAR-TAF: